createdAt,value
2019-03-15T00:01:11.111Z,3.62
2019-03-15T00:06:20.268Z,3.35
2019-03-15T00:11:29.526Z,3.11
2019-03-15T00:16:38.621Z,3.57
2019-03-15T00:21:47.738Z,3.10
2019-03-15T00:26:57.106Z,4.12
2019-03-15T00:32:06.202Z,4.07
2019-03-15T00:37:15.351Z,3.19
2019-03-15T00:42:24.449Z,3.23
2019-03-15T00:47:33.598Z,3.55
2019-03-15T00:52:42.683Z,3.55
2019-03-15T00:57:51.850Z,3.54
2019-03-15T01:03:01.160Z,3.17
2019-03-15T01:08:11.027Z,3.92
2019-03-15T01:13:18.942Z,3.50
2019-03-15T01:18:28.077Z,4.03
2019-03-15T01:23:37.159Z,3.58
2019-03-15T01:28:46.297Z,3.95
2019-03-15T01:33:58.424Z,4.12
2019-03-15T01:38:57.536Z,3.77
2019-03-15T01:44:06.666Z,3.87
2019-03-15T01:49:15.839Z,4.60
2019-03-15T01:54:24.952Z,3.53
2019-03-15T01:59:34.108Z,4.17
2019-03-15T02:04:43.204Z,4.21
2019-03-15T02:09:52.369Z,4.56
2019-03-15T02:15:01.481Z,4.53
2019-03-15T02:20:12.615Z,4.28
2019-03-15T02:25:11.732Z,4.82
2019-03-15T02:30:20.962Z,5.02
2019-03-15T02:35:30.117Z,4.73
2019-03-15T02:40:39.313Z,4.66
2019-03-15T02:45:48.385Z,4.49
2019-03-15T02:50:57.653Z,4.54
2019-03-15T02:56:06.700Z,5.62
2019-03-15T03:01:15.958Z,4.37
2019-03-15T03:06:24.954Z,4.84
2019-03-15T03:11:34.074Z,4.87
2019-03-15T03:16:43.136Z,5.19
2019-03-15T03:21:52.327Z,5.17
2019-03-15T03:27:01.411Z,5.57
2019-03-15T03:32:11.043Z,5.98
2019-03-15T03:37:19.355Z,6.10
2019-03-15T03:42:28.423Z,5.18
2019-03-15T03:47:37.498Z,4.33
2019-03-15T03:52:46.641Z,3.97
2019-03-15T03:57:55.697Z,3.88
2019-03-15T04:03:04.834Z,4.53
2019-03-15T04:08:13.926Z,3.39
2019-03-15T04:13:23.166Z,3.80
2019-03-15T04:18:32.239Z,3.27
2019-03-15T04:23:41.448Z,2.58
2019-03-15T04:28:50.547Z,2.42
2019-03-15T04:33:59.700Z,2.69
2019-03-15T04:39:08.790Z,3.39
2019-03-15T04:44:18.051Z,3.25
2019-03-15T04:49:27.117Z,3.17
2019-03-15T04:54:36.430Z,3.56
2019-03-15T04:59:45.513Z,4.39
2019-03-15T05:04:54.756Z,3.23
2019-03-15T05:10:03.892Z,2.50
2019-03-15T05:15:13.119Z,3.76
2019-03-15T05:20:22.266Z,4.27
2019-03-15T05:25:31.510Z,3.99
2019-03-15T05:30:40.614Z,4.82
2019-03-15T05:35:49.858Z,3.90
2019-03-15T05:40:58.958Z,3.82
2019-03-15T05:46:08.122Z,5.90
2019-03-15T05:51:17.213Z,8.34
2019-03-15T05:56:26.409Z,8.65
2019-03-15T06:01:35.544Z,14.59
2019-03-15T06:06:44.710Z,13.28
2019-03-15T06:11:57.439Z,13.20
2019-03-15T06:16:56.593Z,9.91
2019-03-15T06:22:05.782Z,11.44
2019-03-15T06:27:14.958Z,11.35
2019-03-15T06:32:24.077Z,6.99
2019-03-15T06:37:33.211Z,17.43
2019-03-15T06:42:42.339Z,16.02
2019-03-15T06:47:51.548Z,18.81
2019-03-15T06:53:00.655Z,22.05
2019-03-15T06:58:09.847Z,25.09
2019-03-15T07:03:18.942Z,19.08
2019-03-15T07:08:28.267Z,17.40
2019-03-15T07:13:37.374Z,14.75
2019-03-15T07:18:47.350Z,5.46
2019-03-15T07:23:57.891Z,4.03
2019-03-15T07:29:05.203Z,3.95
2019-03-15T07:34:14.368Z,3.34
2019-03-15T07:39:26.438Z,4.72
2019-03-15T07:44:32.297Z,3.97
2019-03-15T07:49:41.550Z,4.34
2019-03-15T07:54:50.787Z,3.41
2019-03-15T07:59:59.958Z,3.31
2019-03-15T08:05:09.075Z,3.86
2019-03-15T08:10:18.322Z,4.44
2019-03-15T08:15:27.521Z,4.22
2019-03-15T08:20:36.732Z,3.45
2019-03-15T08:25:45.934Z,3.73
2019-03-15T08:30:53.843Z,3.96
2019-03-15T08:36:03.053Z,4.33
2019-03-15T08:41:10.756Z,4.87
2019-03-15T08:46:18.630Z,4.90
2019-03-15T08:51:27.822Z,4.21
2019-03-15T08:56:36.941Z,5.80
2019-03-15T09:01:46.181Z,4.82
2019-03-15T09:06:55.735Z,5.99
2019-03-15T09:12:04.900Z,7.05
2019-03-15T09:17:14.240Z,5.01
2019-03-15T09:22:23.420Z,5.97
2019-03-15T09:27:32.529Z,6.28
2019-03-15T09:32:41.789Z,5.39
2019-03-15T09:37:50.894Z,4.57
2019-03-15T09:43:00.179Z,6.43
2019-03-15T09:48:09.658Z,6.15
2019-03-15T09:53:18.928Z,5.31
2019-03-15T09:58:28.140Z,5.01
2019-03-15T10:03:38.388Z,6.10
2019-03-15T10:08:37.436Z,5.06
2019-03-15T10:13:46.593Z,4.93
2019-03-15T10:18:56.875Z,4.64
2019-03-15T10:23:54.589Z,5.04
2019-03-15T10:29:14.681Z,143.82
2019-03-15T10:34:12.426Z,4.22
2019-03-15T10:39:21.595Z,3.60
2019-03-15T10:44:30.799Z,5.83
2019-03-15T10:49:39.914Z,4.70
2019-03-15T10:54:49.136Z,4.97
2019-03-15T10:59:58.232Z,5.79
2019-03-15T11:05:07.415Z,6.26
2019-03-15T11:10:16.541Z,5.91
2019-03-15T11:15:25.856Z,5.25
2019-03-15T11:20:35.006Z,6.01
2019-03-15T11:25:44.172Z,6.34
2019-03-15T11:30:53.356Z,5.79
2019-03-15T11:36:02.980Z,6.39
2019-03-15T11:41:12.108Z,5.32
2019-03-15T11:46:21.394Z,6.44
2019-03-15T11:51:30.545Z,5.12
2019-03-15T11:56:39.701Z,5.08
2019-03-15T12:01:48.954Z,5.04
2019-03-15T12:06:58.466Z,4.87
2019-03-15T12:12:07.769Z,5.54
2019-03-15T12:17:17.534Z,4.59
2019-03-15T12:22:25.780Z,6.89
2019-03-15T12:27:34.919Z,5.21
2019-03-15T12:32:44.258Z,4.48
2019-03-15T12:37:53.443Z,5.58
2019-03-15T12:43:02.712Z,6.14
2019-03-15T12:48:11.949Z,6.08
2019-03-15T12:53:21.144Z,5.17
2019-03-15T12:58:30.346Z,5.45
2019-03-15T13:03:39.480Z,5.73
2019-03-15T13:08:48.827Z,6.24
2019-03-15T13:13:58.019Z,6.68
2019-03-15T13:19:07.384Z,5.04
2019-03-15T13:24:16.486Z,5.49
2019-03-15T13:29:25.838Z,7.23
2019-03-15T13:34:34.966Z,7.43
2019-03-15T13:39:45.333Z,132.67
2019-03-15T13:44:44.511Z,9.38
2019-03-15T13:49:53.765Z,7.40
2019-03-15T13:55:02.913Z,88.33
2019-03-15T14:00:12.607Z,13.68
2019-03-15T14:05:21.845Z,114.40
2019-03-15T14:10:31.099Z,109.19
2019-03-15T14:15:40.235Z,120.20
2019-03-15T14:20:49.714Z,144.15
2019-03-15T14:25:58.904Z,34.19
2019-03-15T14:31:08.034Z,34.60
2019-03-15T14:36:17.183Z,35.13
2019-03-15T14:41:27.717Z,21.97
2019-03-15T14:46:26.838Z,35.84
2019-03-15T14:51:36.089Z,20.34
2019-03-15T14:56:48.307Z,38.60
2019-03-15T15:01:47.490Z,36.71
2019-03-15T15:06:55.143Z,19.95
2019-03-15T15:12:04.287Z,36.25
2019-03-15T15:17:14.689Z,17.82
2019-03-15T15:22:13.827Z,19.54
2019-03-15T15:27:25.505Z,19.98
2019-03-15T15:32:31.692Z,37.42
2019-03-15T15:37:40.888Z,35.48
2019-03-15T15:42:50.106Z,37.29
2019-03-15T15:47:59.411Z,32.55
2019-03-15T15:53:11.130Z,33.79
2019-03-15T15:58:18.361Z,32.70
2019-03-15T16:03:25.938Z,33.16
2019-03-15T16:08:35.136Z,34.69
2019-03-15T16:13:44.431Z,33.29
2019-03-15T16:18:54.500Z,31.43
2019-03-15T16:24:03.605Z,18.71
2019-03-15T16:29:12.882Z,20.26
2019-03-15T16:34:22.255Z,36.30
2019-03-15T16:39:31.198Z,37.06
2019-03-15T16:44:40.402Z,35.50
2019-03-15T16:49:48.089Z,120.25
2019-03-15T16:55:04.099Z,119.05
2019-03-15T17:00:03.308Z,115.51
2019-03-15T17:05:14.822Z,35.01
2019-03-15T17:10:13.975Z,20.22
2019-03-15T17:15:23.314Z,36.55
2019-03-15T17:20:32.438Z,43.84
2019-03-15T17:25:41.729Z,36.58
2019-03-15T17:30:50.965Z,37.84
2019-03-15T17:36:00.244Z,34.68
2019-03-15T17:41:09.424Z,38.27
2019-03-15T17:46:21.336Z,37.28
2019-03-15T17:51:20.932Z,34.33
2019-03-15T17:56:29.964Z,35.96
2019-03-15T18:01:39.079Z,34.71
2019-03-15T18:06:48.225Z,38.30
2019-03-15T18:11:57.409Z,37.48
2019-03-15T18:17:06.561Z,40.06
2019-03-15T18:22:15.817Z,33.36
2019-03-15T18:27:26.017Z,38.12
2019-03-15T18:32:25.078Z,37.09
2019-03-15T18:37:36.448Z,32.88
2019-03-15T18:42:35.494Z,35.50
2019-03-15T18:47:47.135Z,54.37
2019-03-15T18:52:46.193Z,35.44
2019-03-15T18:57:54.000Z,42.72
2019-03-15T19:03:03.160Z,37.68
2019-03-15T19:08:12.405Z,37.71
2019-03-15T19:13:21.561Z,35.89
2019-03-15T19:18:30.800Z,38.96
2019-03-15T19:23:39.930Z,35.83
2019-03-15T19:28:49.084Z,38.76
2019-03-15T19:33:58.181Z,37.63
2019-03-15T19:39:07.346Z,49.40
2019-03-15T19:44:16.475Z,39.93
2019-03-15T19:49:25.651Z,52.84
2019-03-15T19:54:34.769Z,33.93
2019-03-15T19:59:43.935Z,37.31
2019-03-15T20:04:53.060Z,36.94
2019-03-15T20:10:03.846Z,53.32
2019-03-15T20:15:03.040Z,32.05
2019-03-15T20:20:12.237Z,33.09
2019-03-15T20:25:21.414Z,34.57
2019-03-15T20:30:30.668Z,37.33
2019-03-15T20:35:39.765Z,38.97
2019-03-15T20:40:48.959Z,37.48
2019-03-15T20:45:58.133Z,33.98
2019-03-15T20:51:07.301Z,35.44
2019-03-15T20:56:16.555Z,51.96
2019-03-15T21:01:25.765Z,35.98
2019-03-15T21:06:34.859Z,36.24
2019-03-15T21:11:44.087Z,31.30
2019-03-15T21:16:53.194Z,34.68
2019-03-15T21:22:02.390Z,32.59
2019-03-15T21:27:11.513Z,35.04
2019-03-15T21:32:20.925Z,38.06
2019-03-15T21:37:29.950Z,38.37
2019-03-15T21:42:39.305Z,37.35
2019-03-15T21:47:48.397Z,53.15
2019-03-15T21:52:57.653Z,40.68
2019-03-15T21:58:06.813Z,40.84
2019-03-15T22:03:16.026Z,37.05
2019-03-15T22:08:25.162Z,38.55
2019-03-15T22:13:34.466Z,40.50
2019-03-15T22:18:43.625Z,41.17
2019-03-15T22:23:52.828Z,94.63
2019-03-15T22:29:01.945Z,34.45
2019-03-15T22:34:11.175Z,101.03
2019-03-15T22:39:20.271Z,79.01
2019-03-15T22:44:29.490Z,32.90
2019-03-15T22:49:38.638Z,37.49
2019-03-15T22:54:48.319Z,35.03
2019-03-15T22:59:57.632Z,34.95
2019-03-15T23:05:06.917Z,37.93
2019-03-15T23:10:16.035Z,37.94
2019-03-15T23:15:25.215Z,51.13
2019-03-15T23:20:34.334Z,35.11
2019-03-15T23:25:43.788Z,31.45
2019-03-15T23:30:52.765Z,33.43
2019-03-15T23:36:02.486Z,38.44
2019-03-15T23:41:10.638Z,39.78
2019-03-15T23:46:19.853Z,38.68
2019-03-15T23:51:29.063Z,52.98
2019-03-15T23:56:38.219Z,33.59
